Time;durP1;ratioP1;P1;durP2;ratioP2;P2;SDS_P1;SDS_P2;PMS_P1;PMS_P2;Temp;Humidity;BMP_temperature;BMP_pressure;BME280_temperature;BME280_humidity;BME280_pressure;Samples;Min_cycle;Max_cycle;Signal;HPM_P1;HPM_P2
2021/11/15 00:00:12;;;;;;;80.60;59.10;;;;;;;5.61;78.42;101799.60;107057;1297;22012;-77
2021/11/15 00:03:02;;;;;;;78.90;58.10;;;;;;;5.62;78.51;101804.98;107661;1294;23051;-77
2021/11/15 00:05:31;;;;;;;76.20;57.60;;;;;;;5.63;78.56;101803.36;107689;1293;22460;-77
2021/11/15 00:08:02;;;;;;;78.20;58.40;;;;;;;5.62;78.40;101808.10;107689;1291;23784;-77
2021/11/15 00:10:32;;;;;;;72.70;54.60;;;;;;;5.58;78.39;101810.30;108233;1285;22015;-77
2021/11/15 00:13:01;;;;;;;59.90;45.10;;;;;;;5.54;78.42;101813.01;108396;1284;21998;-77
2021/11/15 00:15:33;;;;;;;59.90;46.90;;;;;;;5.48;78.38;101813.58;108324;1285;22312;-77
2021/11/15 00:18:03;;;;;;;54.80;43.00;;;;;;;5.40;78.30;101817.06;108521;1277;22007;-77
2021/11/15 00:20:33;;;;;;;55.90;44.10;;;;;;;5.32;78.34;101813.55;108956;1277;22025;-77
2021/11/15 00:23:06;;;;;;;56.00;41.50;;;;;;;5.28;78.69;101814.48;108532;1279;21992;-77
2021/11/15 00:25:36;;;;;;;59.00;43.30;;;;;;;5.26;78.78;101820.23;108560;1278;23882;-76
2021/11/15 00:28:06;;;;;;;56.30;45.70;;;;;;;5.23;78.73;101819.58;108219;1285;23731;-77
2021/11/15 00:30:35;;;;;;;54.70;45.40;;;;;;;5.19;78.82;101819.46;108026;1289;21991;-77
2021/11/15 00:33:05;;;;;;;55.30;45.40;;;;;;;5.16;78.89;101822.43;107909;1288;23143;-78
2021/11/15 00:35:35;;;;;;;56.30;45.30;;;;;;;5.13;78.95;101820.03;107595;1294;23861;-77
2021/11/15 00:38:04;;;;;;;54.40;42.50;;;;;;;5.11;79.18;101823.09;107654;1295;22248;-80
2021/11/15 00:40:33;;;;;;;62.30;47.40;;;;;;;5.13;79.35;101823.16;107706;1294;22030;-77
2021/11/15 00:43:05;;;;;;;57.40;45.40;;;;;;;5.14;79.32;101828.31;107461;1294;22022;-78
2021/11/15 00:45:35;;;;;;;65.50;49.10;;;;;;;5.14;79.39;101824.64;107168;1294;23861;-77
2021/11/15 00:48:06;;;;;;;60.70;47.30;;;;;;;5.13;79.34;101824.71;107707;1294;22205;-77
2021/11/15 00:50:37;;;;;;;61.00;49.40;;;;;;;5.12;79.52;101825.31;107770;1294;23621;-77
2021/11/15 00:53:07;;;;;;;62.00;49.80;;;;;;;5.11;79.58;101827.80;107618;1289;22410;-77
2021/11/15 00:55:36;;;;;;;61.60;49.70;;;;;;;5.10;79.58;101825.46;108009;1285;23789;-77
2021/11/15 00:58:06;;;;;;;65.30;53.70;;;;;;;5.11;79.65;101823.79;108377;1285;22961;-77
2021/11/15 01:00:38;;;;;;;64.30;51.40;;;;;;;5.13;79.71;101822.78;108304;1285;21995;-77
2021/11/15 01:03:16;;;;;;;66.60;51.90;;;;;;;5.14;79.70;101824.45;108358;1278;23131;-77
2021/11/15 01:05:49;;;;;;;70.70;54.40;;;;;;;5.14;79.72;101821.00;108862;1277;22009;-77
2021/11/15 01:08:19;;;;;;;71.00;52.90;;;;;;;5.14;79.76;101817.84;108620;1277;22958;-77
2021/11/15 01:10:52;;;;;;;69.60;54.00;;;;;;;5.13;79.56;101816.86;108602;1277;23766;-77
2021/11/15 01:13:24;;;;;;;60.50;49.10;;;;;;;5.12;79.52;101817.61;108762;1279;22957;-76
2021/11/15 01:15:54;;;;;;;61.00;49.50;;;;;;;5.11;79.58;101817.16;108097;1288;23710;-78
2021/11/15 01:18:23;;;;;;;68.60;50.00;;;;;;;5.11;79.66;101816.45;108332;1285;22040;-77
2021/11/15 01:20:53;;;;;;;64.70;49.70;;;;;;;5.11;79.64;101816.66;108014;1289;22160;-77
2021/11/15 01:23:22;;;;;;;67.20;51.30;;;;;;;5.09;79.65;101815.91;108048;1289;23081;-77
2021/11/15 01:25:51;;;;;;;66.90;51.00;;;;;;;5.07;79.63;101817.04;108384;1289;22007;-77
2021/11/15 01:28:21;;;;;;;63.50;49.20;;;;;;;5.08;79.71;101816.84;108113;1288;22164;-77
2021/11/15 01:30:50;;;;;;;65.90;49.00;;;;;;;5.07;79.69;101818.27;107984;1291;22107;-76
2021/11/15 01:33:20;;;;;;;63.80;50.80;;;;;;;5.08;79.80;101815.59;107643;1294;22862;-77
2021/11/15 01:35:50;;;;;;;65.60;51.20;;;;;;;5.09;79.72;101819.55;107530;1295;22882;-76
2021/11/15 01:38:19;;;;;;;60.50;48.00;;;;;;;5.11;79.75;101821.54;107623;1291;23157;-76
2021/11/15 01:40:49;;;;;;;71.70;52.40;;;;;;;5.09;79.56;101823.56;107832;1291;22702;-75
2021/11/15 01:43:18;;;;;;;60.40;47.90;;;;;;;5.09;79.56;101822.52;108007;1289;23081;-76
2021/11/15 01:45:47;;;;;;;67.50;49.40;;;;;;;5.11;79.66;101827.10;107558;1294;22003;-76
2021/11/15 01:48:18;;;;;;;61.90;47.70;;;;;;;5.12;79.63;101830.18;107556;1294;23601;-76
2021/11/15 01:50:47;;;;;;;58.30;45.90;;;;;;;5.12;79.59;101831.61;107350;1291;22234;-76
2021/11/15 01:53:18;;;;;;;61.30;48.50;;;;;;;5.11;79.57;101834.92;108001;1291;23801;-77
2021/11/15 01:55:48;;;;;;;57.80;45.10;;;;;;;5.11;79.56;101834.27;107523;1295;23688;-77
2021/11/15 01:58:18;;;;;;;57.70;46.30;;;;;;;5.13;79.53;101833.44;107033;1298;23090;-78
2021/11/15 02:00:54;;;;;;;61.00;47.00;;;;;;;5.15;79.43;101834.70;107134;1297;22005;-77
2021/11/15 02:03:27;;;;;;;60.80;46.10;;;;;;;5.14;79.37;101835.14;106639;1303;23720;-77
2021/11/15 02:05:57;;;;;;;55.60;42.70;;;;;;;5.13;79.39;101834.13;106434;1303;22252;-77
2021/11/15 02:08:27;;;;;;;57.50;43.60;;;;;;;5.14;79.40;101834.45;106928;1301;22032;-77
2021/11/15 02:10:56;;;;;;;61.50;46.40;;;;;;;5.14;79.33;101838.64;107168;1297;22020;-77
2021/11/15 02:13:25;;;;;;;55.80;42.80;;;;;;;5.14;79.28;101836.16;107369;1291;22001;-77
2021/11/15 02:15:55;;;;;;;53.80;42.20;;;;;;;5.15;79.34;101834.73;107924;1291;22011;-77
2021/11/15 02:18:25;;;;;;;54.20;40.80;;;;;;;5.16;79.33;101834.67;107714;1291;22863;-77
2021/11/15 02:21:07;;;;;;;53.50;42.40;;;;;;;5.16;79.23;101832.21;107781;1285;22391;-77
2021/11/15 02:23:43;;;;;;;54.30;43.30;;;;;;;5.15;79.19;101831.41;108502;1280;21990;-76
2021/11/15 02:26:19;;;;;;;53.40;41.40;;;;;;;5.14;79.22;101830.59;108737;1278;21986;-77
2021/11/15 02:28:52;;;;;;;55.00;41.90;;;;;;;5.13;79.19;101828.05;108625;1278;21987;-79
2021/11/15 02:31:29;;;;;;;50.00;42.10;;;;;;;5.12;79.20;101826.88;108819;1278;21979;-77
2021/11/15 02:34:00;;;;;;;49.80;38.40;;;;;;;5.12;79.25;101827.20;108547;1278;22959;-76
2021/11/15 02:36:29;;;;;;;50.70;39.90;;;;;;;5.11;79.23;101825.02;108679;1278;22002;-76
2021/11/15 02:38:58;;;;;;;48.90;38.60;;;;;;;5.09;79.28;101823.23;108548;1278;21988;-76
2021/11/15 02:41:28;;;;;;;43.70;35.60;;;;;;;5.08;79.25;101827.13;108649;1278;23608;-76
2021/11/15 02:44:01;;;;;;;50.50;38.60;;;;;;;5.08;79.26;101824.00;108383;1284;21979;-76
2021/11/15 02:46:35;;;;;;;43.00;35.60;;;;;;;5.06;79.31;101826.38;108240;1283;23807;-76
2021/11/15 02:49:04;;;;;;;48.50;35.40;;;;;;;5.05;79.27;101828.91;108367;1285;22380;-76
2021/11/15 02:51:34;;;;;;;47.70;37.70;;;;;;;5.05;79.23;101828.86;108046;1289;22118;-76
2021/11/15 02:54:03;;;;;;;46.50;36.20;;;;;;;5.04;79.28;101829.98;108016;1289;23797;-76
2021/11/15 02:56:35;;;;;;;44.50;37.40;;;;;;;5.02;79.25;101831.38;107629;1294;21983;-76
2021/11/15 02:59:04;;;;;;;43.10;35.30;;;;;;;5.00;79.36;101834.07;107564;1294;22029;-76
2021/11/15 03:01:33;;;;;;;46.00;35.60;;;;;;;4.97;79.23;101835.48;107599;1294;22471;-77
2021/11/15 03:04:03;;;;;;;44.60;35.80;;;;;;;4.96;79.32;101835.05;107701;1294;23675;-76
2021/11/15 03:06:33;;;;;;;45.00;36.70;;;;;;;4.95;79.23;101834.41;107710;1294;22020;-75
2021/11/15 03:09:02;;;;;;;57.80;46.40;;;;;;;4.93;79.36;101832.44;107930;1286;21998;-77
2021/11/15 03:11:31;;;;;;;60.40;50.30;;;;;;;4.93;79.24;101832.08;108424;1283;22069;-76
2021/11/15 03:14:01;;;;;;;57.50;47.00;;;;;;;4.94;79.43;101835.86;108379;1278;21998;-76
2021/11/15 03:16:30;;;;;;;56.70;46.70;;;;;;;4.96;79.43;101836.28;108661;1278;21998;-76
2021/11/15 03:19:00;;;;;;;48.40;40.40;;;;;;;4.98;79.41;101834.05;108616;1278;22853;-77
2021/11/15 03:21:30;;;;;;;45.40;38.70;;;;;;;4.99;79.35;101833.83;108714;1278;23724;-77
2021/11/15 03:24:00;;;;;;;47.30;37.80;;;;;;;4.98;79.28;101830.54;108640;1278;23013;-77
2021/11/15 03:26:29;;;;;;;47.20;37.60;;;;;;;4.98;79.21;101830.77;108602;1278;21976;-78
2021/11/15 03:29:00;;;;;;;48.40;39.60;;;;;;;4.97;79.25;101833.26;108564;1278;23840;-78
2021/11/15 03:31:35;;;;;;;50.40;40.60;;;;;;;4.97;79.18;101836.56;108742;1278;21994;-77
2021/11/15 03:34:11;;;;;;;51.40;40.50;;;;;;;4.96;79.24;101839.96;108656;1278;21991;-77
2021/11/15 03:36:48;;;;;;;48.00;39.40;;;;;;;4.97;79.25;101843.90;108487;1279;21988;-77
2021/11/15 03:39:22;;;;;;;51.90;40.10;;;;;;;4.97;79.19;101847.52;108085;1288;23048;-77
2021/11/15 03:41:52;;;;;;;49.50;40.20;;;;;;;4.97;79.15;101849.81;108271;1285;22759;-77
2021/11/15 03:44:21;;;;;;;56.30;45.00;;;;;;;4.96;79.16;101848.11;108386;1285;23035;-77
2021/11/15 03:46:53;;;;;;;50.60;41.90;;;;;;;4.96;79.13;101849.70;108196;1285;22766;-76
2021/11/15 03:49:44;;;;;;;50.40;42.90;;;;;;;4.96;79.07;101849.55;107819;1291;23741;-78
2021/11/15 03:52:13;;;;;;;53.10;42.70;;;;;;;4.96;78.98;101852.52;108037;1290;22029;-77
2021/11/15 03:54:43;;;;;;;45.40;37.70;;;;;;;4.95;78.92;101852.58;107797;1291;22431;-77
2021/11/15 03:57:13;;;;;;;47.40;40.10;;;;;;;4.95;78.97;101853.95;108105;1286;21998;-77
2021/11/15 03:59:42;;;;;;;49.50;40.40;;;;;;;4.98;79.05;101852.23;108109;1288;22476;-78
2021/11/15 04:02:13;;;;;;;46.50;38.10;;;;;;;4.99;78.98;101848.11;108318;1285;22010;-77
2021/11/15 04:04:51;;;;;;;49.80;40.90;;;;;;;4.99;78.85;101845.71;107801;1291;22008;-78
2021/11/15 04:10:37;;;;;;;50.20;39.90;;;;;;;4.95;78.77;101840.70;107812;1291;23023;-76
2021/11/15 04:13:35;;;;;;;51.60;40.50;;;;;;;4.95;78.83;101843.09;107683;1291;24113;-76
2021/11/15 04:16:09;;;;;;;51.60;39.80;;;;;;;4.98;78.86;101843.52;107976;1291;22938;-76
2021/11/15 04:18:48;;;;;;;53.20;41.20;;;;;;;4.97;78.75;101843.00;107959;1291;21992;-76
2021/11/15 04:21:19;;;;;;;50.80;40.00;;;;;;;4.96;78.63;101843.41;107817;1291;22070;-78
2021/11/15 04:23:48;;;;;;;52.90;41.40;;;;;;;4.95;78.66;101845.91;108292;1285;21995;-77
2021/11/15 04:26:18;;;;;;;53.20;42.00;;;;;;;4.94;78.61;101851.57;108389;1280;24324;-77
2021/11/15 04:28:47;;;;;;;53.70;43.10;;;;;;;4.92;78.56;101851.02;108756;1278;21993;-77
2021/11/15 04:31:16;;;;;;;52.70;40.30;;;;;;;4.90;78.53;101854.63;108284;1285;21998;-77
2021/11/15 04:33:45;;;;;;;52.20;40.90;;;;;;;4.88;78.56;101853.52;108319;1283;22061;-77
2021/11/15 04:36:17;;;;;;;49.50;39.90;;;;;;;4.87;78.51;101854.64;108146;1288;22018;-77
2021/11/15 04:38:53;;;;;;;52.10;39.10;;;;;;;4.84;78.54;101849.25;108050;1286;21993;-77
2021/11/15 04:41:26;;;;;;;53.10;42.40;;;;;;;4.80;78.61;101850.52;108062;1288;23786;-77
2021/11/15 04:43:55;;;;;;;53.80;40.00;;;;;;;4.79;78.72;101854.05;108104;1286;22003;-77
2021/11/15 04:46:25;;;;;;;52.10;41.30;;;;;;;4.77;78.69;101855.58;108337;1286;22247;-77
2021/11/15 04:48:54;;;;;;;54.00;42.20;;;;;;;4.76;78.88;101856.86;108025;1289;24023;-77
2021/11/15 04:51:32;;;;;;;53.00;43.10;;;;;;;4.76;78.86;101857.55;108174;1288;23736;-77
2021/11/15 04:54:04;;;;;;;49.00;40.70;;;;;;;4.77;78.79;101856.66;108154;1284;23051;-78
2021/11/15 04:56:33;;;;;;;53.10;40.30;;;;;;;4.78;78.95;101855.03;108177;1285;22984;-78
2021/11/15 04:59:03;;;;;;;53.10;41.70;;;;;;;4.77;78.97;101848.95;108219;1285;22289;-77
2021/11/15 05:01:33;;;;;;;52.50;41.50;;;;;;;4.75;78.87;101847.33;108096;1285;22002;-77
2021/11/15 05:04:03;;;;;;;53.10;43.20;;;;;;;4.75;78.92;101852.41;108400;1285;23714;-77
2021/11/15 05:06:33;;;;;;;54.20;41.20;;;;;;;4.75;79.04;101854.13;108494;1277;21978;-78
2021/11/15 05:09:03;;;;;;;55.10;41.20;;;;;;;4.73;78.95;101852.36;108854;1276;22008;-78
2021/11/15 05:11:37;;;;;;;53.90;42.50;;;;;;;4.70;79.00;101847.39;108678;1277;23577;-77
2021/11/15 05:14:10;;;;;;;56.90;46.90;;;;;;;4.70;79.04;101846.05;108642;1277;22014;-78
2021/11/15 05:16:40;;;;;;;61.10;49.10;;;;;;;4.70;79.16;101844.97;108687;1277;23087;-77
2021/11/15 05:19:09;;;;;;;83.70;65.30;;;;;;;4.71;79.05;101851.36;108644;1277;21991;-78
2021/11/15 05:21:39;;;;;;;78.50;60.70;;;;;;;4.72;79.11;101849.92;108844;1277;21976;-77
2021/11/15 05:24:08;;;;;;;73.10;57.50;;;;;;;4.73;79.16;101853.73;108708;1277;23048;-78
2021/11/15 05:26:37;;;;;;;66.50;58.10;;;;;;;4.72;79.07;101853.09;108905;1277;23733;-78
2021/11/15 05:29:17;;;;;;;70.70;57.20;;;;;;;4.73;79.09;101851.67;108785;1277;22066;-78
2021/11/15 05:31:46;;;;;;;53.10;44.90;;;;;;;4.73;79.09;101853.88;108789;1277;22008;-77
2021/11/15 05:34:16;;;;;;;54.60;46.60;;;;;;;4.75;79.18;101855.17;108611;1280;22028;-77
2021/11/15 05:36:47;;;;;;;56.10;44.70;;;;;;;4.76;79.06;101852.69;108290;1283;23690;-78
2021/11/15 05:39:23;;;;;;;50.30;41.80;;;;;;;4.77;79.05;101857.16;108476;1281;23729;-77
2021/11/15 05:41:58;;;;;;;50.00;41.20;;;;;;;4.75;79.09;101856.06;107814;1287;22239;-77
2021/11/15 05:44:28;;;;;;;51.00;42.00;;;;;;;4.75;79.17;101862.16;107652;1295;24540;-78
2021/11/15 05:47:00;;;;;;;52.90;41.90;;;;;;;4.77;79.19;101867.66;107573;1294;22799;-77
2021/11/15 05:49:35;;;;;;;54.00;43.60;;;;;;;4.76;79.02;101865.42;107725;1294;22017;-77
2021/11/15 05:52:05;;;;;;;52.40;43.40;;;;;;;4.77;79.07;101867.48;107712;1294;23052;-77
2021/11/15 05:54:39;;;;;;;54.90;45.80;;;;;;;4.79;79.09;101866.83;107742;1294;22015;-77
2021/11/15 05:57:09;;;;;;;55.70;44.00;;;;;;;4.80;78.93;101866.77;107381;1295;268532;-76
2021/11/15 05:59:38;;;;;;;53.50;44.40;;;;;;;4.77;78.73;101870.09;107628;1290;22001;-76
2021/11/15 06:02:18;;;;;;;60.20;49.20;;;;;;;4.76;78.95;101869.64;108225;1285;23157;-76
2021/11/15 06:04:48;;;;;;;61.00;48.20;;;;;;;4.78;78.99;101876.86;108089;1286;21992;-76
2021/11/15 06:07:26;;;;;;;66.10;52.20;;;;;;;4.78;78.92;101879.46;108113;1288;23138;-76
2021/11/15 06:09:56;;;;;;;69.90;56.50;;;;;;;4.77;78.94;101880.89;108253;1283;22472;-76
2021/11/15 06:12:26;;;;;;;75.50;57.10;;;;;;;4.77;78.89;101881.58;108438;1283;22008;-76
2021/11/15 06:14:56;;;;;;;69.90;53.20;;;;;;;4.77;78.92;101882.79;108201;1288;24327;-76
2021/11/15 06:17:25;;;;;;;60.70;49.00;;;;;;;4.78;78.93;101888.84;107841;1291;22091;-78
2021/11/15 06:19:54;;;;;;;62.30;48.50;;;;;;;4.79;78.90;101892.65;107759;1291;22549;-78
2021/11/15 06:22:23;;;;;;;57.60;49.50;;;;;;;4.79;78.97;101899.65;107776;1288;23627;-77
2021/11/15 06:24:53;;;;;;;55.50;44.60;;;;;;;4.81;79.00;101897.95;108069;1288;22038;-77
2021/11/15 06:27:22;;;;;;;54.70;45.00;;;;;;;4.82;78.95;101902.42;108339;1287;22015;-76
2021/11/15 06:29:53;;;;;;;55.00;44.50;;;;;;;4.83;78.86;101901.85;108391;1287;21983;-77
2021/11/15 06:32:22;;;;;;;54.70;44.00;;;;;;;4.84;78.85;101895.47;108073;1283;22018;-78
2021/11/15 06:34:52;;;;;;;51.00;42.00;;;;;;;4.85;78.85;101899.95;108471;1277;21976;-78
2021/11/15 06:37:21;;;;;;;53.40;43.30;;;;;;;4.85;78.73;101901.38;108702;1277;24283;-78
2021/11/15 06:39:50;;;;;;;46.70;37.90;;;;;;;4.82;78.66;101899.25;108815;1276;21976;-77
2021/11/15 06:42:20;;;;;;;50.20;40.90;;;;;;;4.81;78.66;101893.74;108550;1280;22749;-78
2021/11/15 06:44:49;;;;;;;47.20;39.30;;;;;;;4.80;78.50;101893.28;108652;1278;22111;-76
2021/11/15 06:47:20;;;;;;;47.10;39.60;;;;;;;4.80;78.56;101895.90;108815;1278;22764;-76
2021/11/15 06:49:51;;;;;;;45.20;39.50;;;;;;;4.81;78.66;101897.75;108566;1278;23724;-78
2021/11/15 06:52:22;;;;;;;48.70;40.50;;;;;;;4.81;78.58;101902.48;108640;1278;22043;-78
2021/11/15 06:54:59;;;;;;;45.60;37.10;;;;;;;4.81;78.57;101901.78;108536;1278;22349;-78
2021/11/15 06:57:29;;;;;;;45.80;39.90;;;;;;;4.81;78.53;101904.58;108512;1278;23706;-78
2021/11/15 06:59:58;;;;;;;49.30;39.80;;;;;;;4.81;78.39;101905.44;108641;1276;23592;-77
2021/11/15 07:02:27;;;;;;;47.00;39.10;;;;;;;4.83;78.61;101902.18;108174;1286;23723;-75
2021/11/15 07:04:57;;;;;;;44.70;38.90;;;;;;;4.86;78.58;101909.28;108434;1285;21986;-75
2021/11/15 07:07:26;;;;;;;43.40;35.50;;;;;;;4.88;78.48;101909.73;108110;1291;23692;-76
2021/11/15 07:09:58;;;;;;;;;;;;;;;4.87;78.34;101906.45;108016;1291;23609;-76
2021/11/15 07:12:28;;;;;;;47.10;39.60;;;;;;;4.81;78.44;101911.21;107433;1296;22027;-77
2021/11/15 07:14:57;;;;;;;47.30;40.10;;;;;;;4.81;78.40;101910.85;107317;1297;22020;-76
2021/11/15 07:17:30;;;;;;;44.70;39.00;;;;;;;4.82;78.27;101915.49;107547;1296;22006;-77
2021/11/15 07:20:04;;;;;;;49.00;41.20;;;;;;;4.83;78.25;101916.33;107356;1297;23091;-77
2021/11/15 07:23:07;;;;;;;51.80;41.50;;;;;;;4.83;78.31;101914.55;107344;1296;22716;-78
2021/11/15 07:25:37;;;;;;;48.80;37.70;;;;;;;4.86;78.30;101917.55;107454;1291;23057;-77
2021/11/15 07:28:06;;;;;;;54.10;43.60;;;;;;;4.85;78.12;101917.96;108051;1285;23645;-77
2021/11/15 07:30:38;;;;;;;49.90;39.40;;;;;;;4.85;78.14;101920.42;108561;1278;22227;-76
2021/11/15 07:33:13;;;;;;;51.60;41.20;;;;;;;4.85;78.08;101917.05;108776;1277;23038;-76
2021/11/15 07:35:48;;;;;;;53.50;43.70;;;;;;;4.88;78.18;101921.57;108699;1278;21988;-77
2021/11/15 07:38:18;;;;;;;49.70;41.00;;;;;;;4.89;78.05;101916.14;108595;1280;22956;-77
2021/11/15 07:40:51;;;;;;;57.80;42.30;;;;;;;4.90;77.99;101920.23;108282;1281;23039;-77
2021/11/15 07:43:22;;;;;;;49.30;38.20;;;;;;;4.91;77.92;101919.14;108365;1285;22008;-77
2021/11/15 07:45:59;;;;;;;46.70;37.90;;;;;;;4.88;77.78;101914.60;108354;1285;21990;-78
2021/11/15 07:48:35;;;;;;;46.60;38.20;;;;;;;4.89;77.76;101911.61;108358;1285;22301;-78
2021/11/15 07:51:14;;;;;;;54.00;38.80;;;;;;;4.90;77.83;101911.00;108293;1283;22769;-78
2021/11/15 07:53:44;;;;;;;50.50;39.70;;;;;;;4.92;77.84;101914.18;108422;1283;23744;-79
2021/11/15 07:56:16;;;;;;;43.00;34.50;;;;;;;4.93;77.73;101918.11;108054;1288;22244;-76
2021/11/15 07:58:45;;;;;;;47.40;39.40;;;;;;;4.93;77.59;101921.63;107724;1293;22005;-77
2021/11/15 08:01:19;;;;;;;44.80;36.00;;;;;;;4.92;77.58;101925.17;107270;1295;23045;-78
2021/11/15 08:03:50;;;;;;;52.50;41.30;;;;;;;4.93;77.65;101923.05;107560;1295;23051;-78
2021/11/15 08:06:19;;;;;;;48.80;39.30;;;;;;;4.93;77.46;101925.29;107676;1291;22030;-79
2021/11/15 08:08:50;;;;;;;52.20;41.30;;;;;;;4.93;77.46;101927.03;107710;1292;22351;-77
2021/11/15 08:11:19;;;;;;;45.50;38.10;;;;;;;4.95;77.49;101928.17;107819;1291;21986;-77
2021/11/15 08:13:49;;;;;;;43.80;37.90;;;;;;;4.96;77.49;101934.56;107873;1291;22011;-77
2021/11/15 08:16:18;;;;;;;44.40;38.00;;;;;;;4.95;77.29;101933.38;107730;1291;22009;-81
2021/11/15 08:18:48;;;;;;;52.60;39.20;;;;;;;4.94;77.42;101929.78;108094;1288;23712;-78
2021/11/15 08:21:21;;;;;;;46.70;38.10;;;;;;;4.96;77.49;101930.38;107811;1289;22781;-79
2021/11/15 08:23:51;;;;;;;46.40;38.60;;;;;;;4.98;77.48;101925.88;108165;1284;21986;-77
2021/11/15 08:26:59;;;;;;;45.30;37.50;;;;;;;5.01;77.48;101924.63;108484;1283;22313;-76
2021/11/15 08:29:33;;;;;;;48.00;40.10;;;;;;;5.01;77.30;101925.16;108470;1283;22023;-76
2021/11/15 08:32:08;;;;;;;49.50;39.60;;;;;;;4.98;77.33;101921.66;108401;1282;23728;-76
2021/11/15 08:34:38;;;;;;;48.60;40.00;;;;;;;4.98;77.34;101922.06;108435;1283;22118;-75
2021/11/15 08:37:09;;;;;;;52.40;43.10;;;;;;;4.98;77.31;101928.84;108280;1283;23696;-75
2021/11/15 08:39:39;;;;;;;54.00;43.60;;;;;;;4.97;77.33;101926.14;108156;1285;23019;-75
2021/11/15 08:42:12;;;;;;;54.30;43.80;;;;;;;4.96;77.34;101922.88;108306;1285;24317;-74
2021/11/15 08:44:53;;;;;;;54.20;45.80;;;;;;;4.97;77.36;101926.45;108035;1289;22185;-77
2021/11/15 08:47:23;;;;;;;58.40;46.00;;;;;;;4.97;77.36;101927.33;107980;1290;22005;-75
2021/11/15 08:49:52;;;;;;;58.30;45.60;;;;;;;4.97;77.38;101926.30;107734;1291;22008;-76
2021/11/15 08:52:22;;;;;;;57.60;45.90;;;;;;;4.97;77.40;101929.27;107547;1295;22019;-76
2021/11/15 08:54:51;;;;;;;55.10;45.40;;;;;;;4.99;77.53;101929.82;107529;1295;22008;-76
2021/11/15 08:57:21;;;;;;;52.70;41.70;;;;;;;5.04;77.56;101935.49;107580;1289;22003;-77
2021/11/15 09:00:02;;;;;;;57.80;46.20;;;;;;;5.07;77.58;101935.45;107518;1295;22044;-77
2021/11/15 09:02:59;;;;;;;54.10;44.60;;;;;;;5.09;77.46;101942.52;107601;1291;22076;-77
2021/11/15 09:05:46;;;;;;;59.50;43.90;;;;;;;5.07;77.44;101942.80;107936;1289;22025;-75
2021/11/15 09:08:21;;;;;;;50.20;43.20;;;;;;;5.07;77.46;101943.33;108099;1288;24139;-76
2021/11/15 09:10:51;;;;;;;58.20;46.70;;;;;;;5.07;77.36;101938.95;108067;1288;22033;-76
2021/11/15 09:13:20;;;;;;;54.70;45.60;;;;;;;5.07;77.42;101939.80;108005;1291;21998;-76
2021/11/15 09:15:49;;;;;;;56.20;45.10;;;;;;;5.07;77.38;101934.60;107738;1291;24334;-76
2021/11/15 09:18:18;;;;;;;55.40;44.40;;;;;;;5.08;77.42;101934.00;108231;1283;24317;-75
2021/11/15 09:20:48;;;;;;;57.30;48.30;;;;;;;5.08;77.37;101929.42;108334;1281;21995;-76
2021/11/15 09:23:17;;;;;;;64.90;50.70;;;;;;;5.07;77.36;101925.48;108510;1281;23583;-77
2021/11/15 09:25:47;;;;;;;67.50;52.00;;;;;;;5.10;77.56;101923.95;108562;1280;22072;-77
2021/11/15 09:28:17;;;;;;;66.70;54.10;;;;;;;5.14;77.54;101922.83;108091;1288;22648;-77
2021/11/15 09:31:00;;;;;;;69.10;53.80;;;;;;;5.14;77.39;101926.27;108123;1288;23604;-77
2021/11/15 09:34:05;;;;;;;73.60;58.50;;;;;;;5.11;77.45;101929.09;108139;1288;21980;-77
2021/11/15 09:36:56;;;;;;;78.30;59.20;;;;;;;5.11;77.54;101925.24;108289;1288;22059;-77
2021/11/15 09:39:50;;;;;;;73.50;59.60;;;;;;;5.10;77.40;101926.38;108087;1287;21993;-77
2021/11/15 09:42:21;;;;;;;76.30;60.80;;;;;;;5.08;77.52;101925.98;107897;1289;22025;-77
2021/11/15 09:44:51;;;;;;;75.30;62.20;;;;;;;5.09;77.64;101929.73;108086;1289;22004;-76
2021/11/15 09:47:20;;;;;;;75.90;61.30;;;;;;;5.11;77.69;101929.80;108237;1283;23759;-77
2021/11/15 09:49:50;;;;;;;75.10;57.90;;;;;;;5.11;77.72;101927.51;108384;1282;21995;-77
2021/11/15 09:52:20;;;;;;;65.60;52.20;;;;;;;5.15;77.81;101926.05;108038;1288;21998;-76
2021/11/15 09:54:49;;;;;;;64.40;51.40;;;;;;;5.18;77.72;101928.81;108151;1286;22079;-76
2021/11/15 09:57:45;;;;;;;64.30;49.60;;;;;;;5.17;77.56;101930.14;108210;1283;23000;-76
2021/11/15 10:00:22;;;;;;;64.00;50.20;;;;;;;5.17;77.69;101928.06;108031;1289;23809;-77
2021/11/15 10:02:52;;;;;;;61.50;51.20;;;;;;;5.17;77.69;101927.33;108128;1289;22010;-77
2021/11/15 10:05:26;;;;;;;67.40;54.90;;;;;;;5.19;77.75;101930.00;107928;1289;21998;-75
2021/11/15 10:07:57;;;;;;;59.00;49.20;;;;;;;5.22;77.73;101928.98;107953;1289;23414;-77
2021/11/15 10:10:40;;;;;;;68.20;54.40;;;;;;;5.23;77.73;101931.33;107730;1291;22013;-78
2021/11/15 10:13:35;;;;;;;66.10;53.30;;;;;;;5.20;77.72;101925.21;107941;1291;22012;-78
2021/11/15 10:16:19;;;;;;;69.00;56.10;;;;;;;5.21;77.82;101927.61;107429;1297;23797;-78
2021/11/15 10:19:01;;;;;;;76.30;57.50;;;;;;;5.25;77.83;101927.74;107528;1292;23048;-78
2021/11/15 10:21:58;;;;;;;77.50;59.30;;;;;;;5.27;77.88;101921.65;107630;1292;24460;-77
2021/11/15 10:24:41;;;;;;;74.90;59.00;;;;;;;5.28;77.74;101922.16;107695;1294;22079;-77
2021/11/15 10:27:17;;;;;;;80.60;60.10;;;;;;;5.28;77.71;101922.45;107792;1292;22056;-77
2021/11/15 10:29:51;;;;;;;78.10;59.50;;;;;;;5.30;77.84;101923.04;108066;1286;22125;-77
2021/11/15 10:32:30;;;;;;;78.90;61.30;;;;;;;5.33;77.83;101923.05;108260;1286;22778;-78
2021/11/15 10:35:03;;;;;;;70.20;58.90;;;;;;;5.33;77.62;101920.92;107686;1291;22039;-78
2021/11/15 10:37:36;;;;;;;73.00;59.40;;;;;;;5.34;77.68;101917.06;107374;1296;23189;-78
2021/11/15 10:40:12;;;;;;;71.60;56.60;;;;;;;5.37;77.84;101917.36;107575;1291;22027;-77
2021/11/15 10:42:50;;;;;;;71.60;56.80;;;;;;;5.39;77.66;101916.84;107560;1296;22033;-78
2021/11/15 10:45:28;;;;;;;67.60;55.80;;;;;;;5.40;77.58;101917.65;107261;1299;22770;-78
2021/11/15 10:48:02;;;;;;;67.40;56.10;;;;;;;5.42;77.55;101919.85;107139;1300;23736;-77
2021/11/15 10:50:48;;;;;;;70.20;58.60;;;;;;;5.41;77.41;101920.40;106568;1304;23641;-78
2021/11/15 10:53:27;;;;;;;81.80;67.20;;;;;;;5.38;77.32;101916.27;107313;1293;22461;-79
2021/11/15 10:56:20;;;;;;;80.40;66.50;;;;;;;5.37;77.36;101910.92;107687;1295;22025;-77
2021/11/15 10:58:50;;;;;;;71.70;58.00;;;;;;;5.38;77.58;101907.89;107579;1294;22009;-78
2021/11/15 11:01:28;;;;;;;64.00;55.50;;;;;;;5.42;77.63;101912.49;107626;1292;23096;-77
2021/11/15 11:04:12;;;;;;;68.60;54.60;;;;;;;5.45;77.54;101916.70;108106;1286;22128;-78
2021/11/15 11:07:07;;;;;;;71.70;56.90;;;;;;;5.44;77.38;101915.70;107812;1291;21992;-78
2021/11/15 11:09:41;;;;;;;71.40;55.50;;;;;;;5.46;77.58;101908.80;107648;1291;22237;-78
2021/11/15 11:12:22;;;;;;;63.50;54.80;;;;;;;5.50;77.53;101903.47;107713;1291;22780;-77
2021/11/15 11:14:52;;;;;;;70.90;55.90;;;;;;;5.54;77.45;101901.27;107800;1290;22085;-77
2021/11/15 11:17:22;;;;;;;62.80;51.40;;;;;;;5.55;77.45;101894.05;107996;1290;24408;-77
2021/11/15 11:20:27;;;;;;;65.20;52.80;;;;;;;5.56;77.31;101893.30;107601;1295;24363;-77
2021/11/15 11:26:11;;;;;;;70.60;55.60;;;;;;;5.52;77.28;101884.81;107998;1291;22013;-77
2021/11/15 11:28:46;;;;;;;65.60;55.20;;;;;;;5.53;77.40;101879.84;108173;1285;23773;-77
2021/11/15 11:31:17;;;;;;;66.10;55.00;;;;;;;5.54;77.31;101885.38;108273;1286;22997;-76
2021/11/15 11:33:48;;;;;;;68.20;54.30;;;;;;;5.55;77.33;101885.29;108222;1285;23013;-77
2021/11/15 11:36:18;;;;;;;71.90;56.70;;;;;;;5.56;77.30;101882.25;108158;1285;23095;-77
2021/11/15 11:38:48;;;;;;;68.30;56.20;;;;;;;5.60;77.35;101880.79;108311;1285;22017;-77
2021/11/15 11:41:18;;;;;;;66.10;54.30;;;;;;;5.62;77.20;101878.19;108270;1285;23012;-77